Macy, Nebraska
Current Conditions -  °F | °C
As of 12:52 AM on Saturday 25 Oct 2014 (Local Time) from KSUX Reporting Station
Clear Clear  
Wind Chill: 46°   Ceiling: Unl
Heat Index: 48°   Visibility: 10mi
Dew Point: 43°   Wind: 5mph
Humidity: 83%   Direction: 270°W
Pressure: 30.01"   Gusts: NA
Location:  42.11°N, 96.36°W
Report Text: KSUX 250552Z AUTO 27004KT 10SM CLR 09/06 A3001 RMK AO2 SLP161 T00890061 10172 20078 402560078 50007
Loading
Personal Weather Stations






























Interactive Weather Map
Tropical Storm Tracking
New forecast layout! Learn more

10-Day Weather Forecast

Advertisements
Track Severe Weather on mobile